createdAt,value
2022-10-03T00:00:37.177Z,10.45
2022-10-03T00:01:37.636Z,10.41
2022-10-03T00:02:37.240Z,10.36
2022-10-03T00:03:37.111Z,10.41
2022-10-03T00:04:37.119Z,10.27
2022-10-03T00:05:37.115Z,10.32
2022-10-03T00:06:37.108Z,10.11
2022-10-03T00:07:37.090Z,10.20
2022-10-03T00:08:37.102Z,10.22
2022-10-03T00:09:37.046Z,10.20
2022-10-03T00:10:37.051Z,10.08
2022-10-03T00:11:37.178Z,10.09
2022-10-03T00:12:37.016Z,10.05
2022-10-03T00:13:37.024Z,10.08
2022-10-03T00:14:37.020Z,10.04
2022-10-03T00:15:37.077Z,10.01
2022-10-03T00:16:36.988Z,10.02
2022-10-03T00:17:36.954Z,9.94
2022-10-03T00:18:36.987Z,9.94
2022-10-03T00:19:36.957Z,9.94
2022-10-03T00:20:36.966Z,9.94
2022-10-03T00:21:37.330Z,9.90
2022-10-03T00:22:36.994Z,9.89
2022-10-03T00:23:36.885Z,9.91
2022-10-03T00:24:36.912Z,9.89
2022-10-03T00:25:36.886Z,9.87
2022-10-03T00:26:36.861Z,9.84
2022-10-03T00:27:36.848Z,9.86
2022-10-03T00:28:36.853Z,9.86
2022-10-03T00:29:36.837Z,9.89
2022-10-03T00:30:36.834Z,9.83
2022-10-03T00:31:37.275Z,9.90
2022-10-03T00:32:36.796Z,9.87
2022-10-03T00:33:36.787Z,9.91
2022-10-03T00:34:36.766Z,9.89
2022-10-03T00:35:36.799Z,9.84
2022-10-03T00:36:36.771Z,9.91
2022-10-03T00:37:36.732Z,9.96
2022-10-03T00:38:36.725Z,9.89
2022-10-03T00:39:36.728Z,9.93
2022-10-03T00:40:36.758Z,9.89
2022-10-03T00:41:37.189Z,9.86
2022-10-03T00:42:36.711Z,9.84
2022-10-03T00:43:36.661Z,9.78
2022-10-03T00:44:36.670Z,9.83
2022-10-03T00:45:36.748Z,9.76
2022-10-03T00:46:36.672Z,9.86
2022-10-03T00:47:36.642Z,9.74
2022-10-03T00:48:36.649Z,9.76
2022-10-03T00:49:36.594Z,9.72
2022-10-03T00:50:36.821Z,9.78
2022-10-03T00:51:36.882Z,9.74
2022-10-03T00:52:36.574Z,9.78
2022-10-03T00:53:36.569Z,9.64
2022-10-03T00:54:36.539Z,9.69
2022-10-03T00:55:36.526Z,9.68
2022-10-03T00:56:36.572Z,9.69
2022-10-03T00:57:36.546Z,9.66
2022-10-03T00:58:36.516Z,9.66
2022-10-03T00:59:36.482Z,9.66
2022-10-03T01:00:36.504Z,9.69
2022-10-03T01:01:36.712Z,9.76
2022-10-03T01:02:36.589Z,9.71
2022-10-03T01:03:36.484Z,9.72
2022-10-03T01:04:36.457Z,9.78
2022-10-03T01:05:36.431Z,9.81
2022-10-03T01:06:36.404Z,9.84
2022-10-03T01:07:36.418Z,9.93
2022-10-03T01:08:36.417Z,9.89
2022-10-03T01:09:36.488Z,9.87
2022-10-03T01:10:36.379Z,9.94
2022-10-03T01:11:36.907Z,9.93
2022-10-03T01:12:36.444Z,9.89
2022-10-03T01:13:36.345Z,9.90
2022-10-03T01:14:36.358Z,9.93
2022-10-03T01:15:36.329Z,9.94
2022-10-03T01:16:36.296Z,9.91
2022-10-03T01:17:36.278Z,9.97
2022-10-03T01:18:36.269Z,10.01
2022-10-03T01:19:36.315Z,10.02
2022-10-03T01:20:36.259Z,10.01
2022-10-03T01:21:36.348Z,9.99
2022-10-03T01:22:36.223Z,10.02
2022-10-03T01:23:36.213Z,9.99
2022-10-03T01:24:36.238Z,9.93
2022-10-03T01:25:36.208Z,9.93
2022-10-03T01:26:36.197Z,9.91
2022-10-03T01:27:36.197Z,9.93
2022-10-03T01:28:36.204Z,9.96
2022-10-03T01:29:36.149Z,9.91
2022-10-03T01:30:36.152Z,9.91
2022-10-03T01:31:36.256Z,9.89
2022-10-03T01:32:36.134Z,9.89
2022-10-03T01:33:36.130Z,9.84
2022-10-03T01:34:36.140Z,9.78
2022-10-03T01:35:36.084Z,9.72
2022-10-03T01:36:36.095Z,9.84
2022-10-03T01:37:36.071Z,9.79
2022-10-03T01:38:36.063Z,9.75
2022-10-03T01:39:36.082Z,9.74
2022-10-03T01:40:36.022Z,9.60
2022-10-03T01:41:36.036Z,9.71
2022-10-03T01:42:36.001Z,9.68
2022-10-03T01:43:36.003Z,9.65
2022-10-03T01:44:35.996Z,9.58
2022-10-03T01:45:36.041Z,9.64
2022-10-03T01:46:36.038Z,9.66
2022-10-03T01:47:35.964Z,9.57
2022-10-03T01:48:35.948Z,9.58
2022-10-03T01:49:35.939Z,9.56
2022-10-03T01:50:35.950Z,9.51
2022-10-03T01:51:35.983Z,9.54
2022-10-03T01:52:35.886Z,9.50
2022-10-03T01:53:35.875Z,9.58
2022-10-03T01:54:35.876Z,9.54
2022-10-03T01:55:35.881Z,9.56
2022-10-03T01:56:35.841Z,9.46
2022-10-03T01:57:35.847Z,9.48
2022-10-03T01:58:35.823Z,9.60
2022-10-03T01:59:35.812Z,9.51
2022-10-03T02:00:35.916Z,9.51
2022-10-03T02:01:36.048Z,9.57
2022-10-03T02:02:35.776Z,9.61
2022-10-03T02:03:35.783Z,9.54
2022-10-03T02:04:35.765Z,9.61
2022-10-03T02:05:35.788Z,9.57
2022-10-03T02:06:35.760Z,9.64
2022-10-03T02:07:35.717Z,9.64
2022-10-03T02:08:35.708Z,9.69
2022-10-03T02:09:35.708Z,9.64
2022-10-03T02:10:35.689Z,9.65
2022-10-03T02:11:35.718Z,9.64
2022-10-03T02:12:35.714Z,9.76
2022-10-03T02:13:35.650Z,9.64
2022-10-03T02:14:35.651Z,9.72
2022-10-03T02:15:35.649Z,9.74
2022-10-03T02:16:35.763Z,9.69
2022-10-03T02:17:35.629Z,9.78
2022-10-03T02:18:35.624Z,9.83
2022-10-03T02:19:35.583Z,9.78
2022-10-03T02:20:35.576Z,9.78
2022-10-03T02:21:35.603Z,9.84
2022-10-03T02:22:35.555Z,9.87
2022-10-03T02:23:35.554Z,9.84
2022-10-03T02:24:35.528Z,9.93
2022-10-03T02:25:35.514Z,9.86
2022-10-03T02:26:35.541Z,9.90
2022-10-03T02:27:35.496Z,9.90
2022-10-03T02:28:35.502Z,9.89
2022-10-03T02:29:35.496Z,9.84
2022-10-03T02:30:35.465Z,9.86
2022-10-03T02:31:35.597Z,9.86
2022-10-03T02:32:35.494Z,9.83
2022-10-03T02:33:35.430Z,9.87
2022-10-03T02:34:35.436Z,9.78
2022-10-03T02:35:35.441Z,9.76
2022-10-03T02:36:35.394Z,9.84
2022-10-03T02:37:35.808Z,9.76
2022-10-03T02:38:35.407Z,9.81
2022-10-03T02:39:35.396Z,9.84
2022-10-03T02:40:35.377Z,9.81
2022-10-03T02:41:35.336Z,9.81
2022-10-03T02:42:35.342Z,9.76
2022-10-03T02:43:35.312Z,9.76
2022-10-03T02:44:35.333Z,9.75
2022-10-03T02:45:35.327Z,9.81
2022-10-03T02:46:35.309Z,9.74
2022-10-03T02:47:35.270Z,9.79
2022-10-03T02:48:35.290Z,9.76
2022-10-03T02:49:35.249Z,9.78
2022-10-03T02:50:35.255Z,9.71
2022-10-03T02:51:35.245Z,9.76
2022-10-03T02:52:35.258Z,9.71
2022-10-03T02:53:35.204Z,9.76
2022-10-03T02:54:35.302Z,9.75
2022-10-03T02:55:35.190Z,9.75
2022-10-03T02:56:35.179Z,9.74
2022-10-03T02:57:35.184Z,9.78
2022-10-03T02:58:35.147Z,9.76
2022-10-03T02:59:35.145Z,9.74
2022-10-03T03:00:35.195Z,9.78
2022-10-03T03:01:35.135Z,9.76
2022-10-03T03:02:35.173Z,9.78
2022-10-03T03:03:35.128Z,9.76
2022-10-03T03:04:35.095Z,9.78
2022-10-03T03:05:35.082Z,9.84
2022-10-03T03:06:35.063Z,9.79
2022-10-03T03:07:35.051Z,9.78
2022-10-03T03:08:35.061Z,9.75
2022-10-03T03:09:35.022Z,9.75
2022-10-03T03:10:35.024Z,9.74
2022-10-03T03:11:35.022Z,9.74
2022-10-03T03:12:39.165Z,9.72
2022-10-03T03:13:35.996Z,9.78
2022-10-03T03:14:35.001Z,9.58
2022-10-03T03:15:34.956Z,9.74
2022-10-03T03:16:35.014Z,9.66
2022-10-03T03:17:34.944Z,9.65
2022-10-03T03:18:34.937Z,9.65
2022-10-03T03:19:34.927Z,9.65
2022-10-03T03:20:35.028Z,9.65
2022-10-03T03:21:34.942Z,9.64
2022-10-03T03:22:34.875Z,9.64
2022-10-03T03:23:34.873Z,9.65
2022-10-03T03:24:34.863Z,9.65
2022-10-03T03:25:34.865Z,9.61
2022-10-03T03:26:34.838Z,9.60
2022-10-03T03:27:34.829Z,9.54
2022-10-03T03:28:34.809Z,9.57
2022-10-03T03:29:34.840Z,9.66
2022-10-03T03:30:34.803Z,9.65
2022-10-03T03:31:34.886Z,9.65
2022-10-03T03:32:34.762Z,9.61
2022-10-03T03:33:34.781Z,9.61
2022-10-03T03:34:34.777Z,9.71
2022-10-03T03:35:34.765Z,9.61
2022-10-03T03:36:34.756Z,9.61
2022-10-03T03:37:34.727Z,9.58
2022-10-03T03:38:34.698Z,9.58
2022-10-03T03:39:34.695Z,9.64
2022-10-03T03:40:34.711Z,9.57
2022-10-03T03:41:34.669Z,9.65
2022-10-03T03:42:34.675Z,9.54
2022-10-03T03:43:34.685Z,9.48
2022-10-03T03:44:34.638Z,9.50
2022-10-03T03:45:34.675Z,9.47
2022-10-03T03:46:34.631Z,9.50
2022-10-03T03:47:34.605Z,9.42
2022-10-03T03:48:34.583Z,9.42
2022-10-03T03:49:34.572Z,9.40
2022-10-03T03:50:34.567Z,9.40
2022-10-03T03:51:34.593Z,9.33
2022-10-03T03:52:34.560Z,9.31
2022-10-03T03:53:34.550Z,9.38
2022-10-03T03:54:34.545Z,9.36
2022-10-03T03:55:34.520Z,9.32
2022-10-03T03:56:34.516Z,9.40
2022-10-03T03:57:34.504Z,9.38
2022-10-03T03:58:34.479Z,9.39
2022-10-03T03:59:34.475Z,9.38
2022-10-03T04:00:34.452Z,9.43
2022-10-03T04:01:34.515Z,9.42
2022-10-03T04:02:34.522Z,9.42
2022-10-03T04:03:34.427Z,9.42
2022-10-03T04:04:34.440Z,9.36
2022-10-03T04:05:34.426Z,9.43
2022-10-03T04:06:34.382Z,9.40
2022-10-03T04:07:34.389Z,9.39
2022-10-03T04:08:34.378Z,9.47
2022-10-03T04:09:34.364Z,9.51
2022-10-03T04:10:34.355Z,9.54
2022-10-03T04:11:34.366Z,9.54
2022-10-03T04:12:34.314Z,9.48
2022-10-03T04:13:34.328Z,9.61
2022-10-03T04:14:34.296Z,9.57
2022-10-03T04:15:34.333Z,9.43
2022-10-03T04:16:34.395Z,9.65
2022-10-03T04:17:34.259Z,9.60
2022-10-03T04:18:34.261Z,9.56
2022-10-03T04:19:34.237Z,9.50
2022-10-03T04:20:34.247Z,9.51
2022-10-03T04:21:34.235Z,9.57
2022-10-03T04:22:34.234Z,9.50
2022-10-03T04:23:34.193Z,9.57
2022-10-03T04:24:34.196Z,9.60
2022-10-03T04:25:34.176Z,9.64
2022-10-03T04:26:34.168Z,9.64
2022-10-03T04:27:34.175Z,9.61
2022-10-03T04:28:34.363Z,9.69
2022-10-03T04:29:34.213Z,9.65
2022-10-03T04:30:34.112Z,9.61
2022-10-03T04:31:34.192Z,9.71
2022-10-03T04:32:34.100Z,9.69
2022-10-03T04:33:34.095Z,9.58
2022-10-03T04:34:34.104Z,9.75
2022-10-03T04:35:34.074Z,9.74
2022-10-03T04:36:34.081Z,9.78
2022-10-03T04:37:34.039Z,9.74
2022-10-03T04:38:34.035Z,9.74
2022-10-03T04:39:34.045Z,9.76
2022-10-03T04:40:34.020Z,9.75
2022-10-03T04:41:33.994Z,9.74
2022-10-03T04:42:33.999Z,9.74
2022-10-03T04:43:33.972Z,9.76
2022-10-03T04:44:33.973Z,9.76
2022-10-03T04:45:34.022Z,9.81
2022-10-03T04:46:33.950Z,9.74
2022-10-03T04:47:33.953Z,9.78
2022-10-03T04:48:33.928Z,9.75
2022-10-03T04:49:33.917Z,9.75
2022-10-03T04:50:33.905Z,9.89
2022-10-03T04:51:33.876Z,9.81
2022-10-03T04:52:33.887Z,9.72
2022-10-03T04:53:33.887Z,9.74
2022-10-03T04:54:33.851Z,9.81
2022-10-03T04:55:33.846Z,9.76
2022-10-03T04:56:33.846Z,9.89
2022-10-03T04:57:33.809Z,9.90
2022-10-03T04:58:33.796Z,9.90
2022-10-03T04:59:33.809Z,9.87
2022-10-03T05:00:33.784Z,9.91
2022-10-03T05:01:33.797Z,9.96
2022-10-03T05:02:33.930Z,9.90
2022-10-03T05:03:33.746Z,9.97
2022-10-03T05:04:33.754Z,9.90
2022-10-03T05:05:33.721Z,9.96
2022-10-03T05:06:33.722Z,9.93
2022-10-03T05:07:33.713Z,9.93
2022-10-03T05:08:33.730Z,9.91
2022-10-03T05:09:33.674Z,9.91
2022-10-03T05:10:33.665Z,9.91
2022-10-03T05:11:33.673Z,9.93
2022-10-03T05:12:33.679Z,9.91
2022-10-03T05:13:33.630Z,9.91
2022-10-03T05:14:33.620Z,9.91
2022-10-03T05:15:33.610Z,9.89
2022-10-03T05:16:33.662Z,9.89
2022-10-03T05:17:33.622Z,9.91
2022-10-03T05:18:33.599Z,9.91
2022-10-03T05:19:33.605Z,9.86
2022-10-03T05:20:33.566Z,9.89
2022-10-03T05:21:33.540Z,9.90
2022-10-03T05:22:33.555Z,9.90
2022-10-03T05:23:33.533Z,9.86
2022-10-03T05:24:33.538Z,9.89
2022-10-03T05:25:33.504Z,9.94
2022-10-03T05:26:45.191Z,9.79
2022-10-03T05:27:34.480Z,9.76
2022-10-03T05:28:33.644Z,9.79
2022-10-03T05:29:33.468Z,9.89
2022-10-03T05:30:33.476Z,9.86
2022-10-03T05:31:33.502Z,9.81
2022-10-03T05:32:33.415Z,9.91
2022-10-03T05:33:33.415Z,9.91
2022-10-03T05:34:33.430Z,9.97
2022-10-03T05:35:33.407Z,9.93
2022-10-03T05:36:33.403Z,9.91
2022-10-03T05:37:33.362Z,9.90
2022-10-03T05:38:33.349Z,9.99
2022-10-03T05:39:33.369Z,10.02
2022-10-03T05:40:33.335Z,10.02
2022-10-03T05:41:33.356Z,10.07
2022-10-03T05:42:33.347Z,10.07
2022-10-03T05:43:33.318Z,10.05
2022-10-03T05:44:33.416Z,10.05
2022-10-03T05:45:33.324Z,10.05
2022-10-03T05:46:33.280Z,10.07
2022-10-03T05:47:33.270Z,9.99
2022-10-03T05:48:33.278Z,10.02
2022-10-03T05:49:33.237Z,9.99
2022-10-03T05:50:33.224Z,9.96
2022-10-03T05:51:33.212Z,9.96
2022-10-03T05:52:33.213Z,9.91
2022-10-03T05:53:33.225Z,9.89
2022-10-03T05:54:33.176Z,9.86
2022-10-03T05:55:33.163Z,9.87
2022-10-03T05:56:36.582Z,9.84
2022-10-03T05:57:34.141Z,9.83
2022-10-03T05:58:33.147Z,9.84
2022-10-03T05:59:33.148Z,9.75
2022-10-03T06:00:33.124Z,9.78
2022-10-03T06:01:33.151Z,9.81
2022-10-03T06:02:33.201Z,9.81
2022-10-03T06:03:33.179Z,9.83
2022-10-03T06:04:33.093Z,9.72
2022-10-03T06:05:33.071Z,9.78
2022-10-03T06:06:33.048Z,9.79
2022-10-03T06:07:33.051Z,9.81
2022-10-03T06:08:33.028Z,9.83
2022-10-03T06:09:33.025Z,9.86
2022-10-03T06:10:32.995Z,9.86
2022-10-03T06:11:32.980Z,9.89
2022-10-03T06:12:32.976Z,9.96
2022-10-03T06:13:32.989Z,9.89
2022-10-03T06:14:32.954Z,9.91
2022-10-03T06:15:32.965Z,10.04
2022-10-03T06:16:33.053Z,10.05
2022-10-03T06:17:32.913Z,10.12
2022-10-03T06:18:32.914Z,10.08
2022-10-03T06:19:32.921Z,10.12
2022-10-03T06:20:32.905Z,10.22
2022-10-03T06:21:32.965Z,10.25
2022-10-03T06:22:32.856Z,10.17
2022-10-03T06:23:32.845Z,10.23
2022-10-03T06:24:32.845Z,10.22
2022-10-03T06:25:32.864Z,10.26
2022-10-03T06:26:32.823Z,10.29
2022-10-03T06:27:32.843Z,10.29
2022-10-03T06:28:32.902Z,10.33
2022-10-03T06:29:32.778Z,10.42
2022-10-03T06:30:32.846Z,10.38
2022-10-03T06:31:32.837Z,10.38
2022-10-03T06:32:32.782Z,10.47
2022-10-03T06:33:32.742Z,10.40
2022-10-03T06:34:32.720Z,10.51
2022-10-03T06:35:32.715Z,10.44
2022-10-03T06:36:40.702Z,10.53
2022-10-03T06:37:32.706Z,10.51
2022-10-03T06:38:32.702Z,10.53
2022-10-03T06:39:32.667Z,10.53
2022-10-03T06:40:32.668Z,10.51
2022-10-03T06:41:32.645Z,10.56
2022-10-03T06:42:32.638Z,10.61
2022-10-03T06:43:32.652Z,10.66
2022-10-03T06:44:32.684Z,10.71
2022-10-03T06:45:32.605Z,10.79
2022-10-03T06:46:32.627Z,10.81
2022-10-03T06:47:32.603Z,10.79
2022-10-03T06:48:32.595Z,10.82
2022-10-03T06:49:32.579Z,10.86
2022-10-03T06:50:32.545Z,10.86
2022-10-03T06:51:32.530Z,10.88
2022-10-03T06:52:32.548Z,10.86
2022-10-03T06:53:32.515Z,10.92
2022-10-03T06:54:32.525Z,10.91
2022-10-03T06:55:32.495Z,10.89
2022-10-03T06:56:32.481Z,10.96
2022-10-03T06:57:32.464Z,10.82
2022-10-03T06:58:32.480Z,10.96
2022-10-03T06:59:32.448Z,11.03
2022-10-03T07:00:32.452Z,11.02
2022-10-03T07:01:32.522Z,10.94
2022-10-03T07:02:32.544Z,11.02
2022-10-03T07:03:32.398Z,10.99
2022-10-03T07:04:32.405Z,11.10
2022-10-03T07:05:32.391Z,11.18
2022-10-03T07:06:32.398Z,10.92
2022-10-03T07:07:32.397Z,10.99
2022-10-03T07:08:32.360Z,11.00
2022-10-03T07:09:32.348Z,11.06
2022-10-03T07:10:32.321Z,11.02
2022-10-03T07:11:32.328Z,10.99
2022-10-03T07:12:32.301Z,11.11
2022-10-03T07:13:32.332Z,11.11
2022-10-03T07:14:32.282Z,11.06
2022-10-03T07:15:57.910Z,11.10
2022-10-03T07:16:33.334Z,11.11
2022-10-03T07:17:32.250Z,11.11
2022-10-03T07:18:32.267Z,11.06
2022-10-03T07:19:32.224Z,11.07
2022-10-03T07:20:32.225Z,11.02
2022-10-03T07:21:32.211Z,11.09
2022-10-03T07:22:32.201Z,11.10
2022-10-03T07:23:32.200Z,11.07
2022-10-03T07:24:32.199Z,11.09
2022-10-03T07:25:32.150Z,11.09
2022-10-03T07:26:32.147Z,11.06
2022-10-03T07:27:32.150Z,11.09
2022-10-03T07:28:32.249Z,11.11
2022-10-03T07:29:32.135Z,11.09
2022-10-03T07:30:32.095Z,11.11
2022-10-03T07:31:32.172Z,11.10
2022-10-03T07:32:32.091Z,11.06
2022-10-03T07:33:36.625Z,11.04
2022-10-03T07:34:33.091Z,11.11
2022-10-03T07:35:32.072Z,11.09
2022-10-03T07:36:32.049Z,11.21
2022-10-03T07:37:32.037Z,11.27
2022-10-03T07:38:32.007Z,11.25
2022-10-03T07:39:32.015Z,11.22
2022-10-03T07:40:32.003Z,11.27
2022-10-03T07:41:31.970Z,11.28
2022-10-03T07:42:31.969Z,11.18
2022-10-03T07:43:31.949Z,11.25
2022-10-03T07:44:31.940Z,11.18
2022-10-03T07:45:31.957Z,11.36
2022-10-03T07:46:31.983Z,11.28
2022-10-03T07:47:31.904Z,11.40
2022-10-03T07:48:31.896Z,11.36
2022-10-03T07:49:31.906Z,11.35
2022-10-03T07:50:31.876Z,11.28
2022-10-03T07:51:31.896Z,11.33
2022-10-03T07:52:31.918Z,11.32
2022-10-03T07:53:31.836Z,11.27
2022-10-03T07:54:31.827Z,11.35
2022-10-03T07:55:31.821Z,11.35
2022-10-03T07:56:31.814Z,11.39
2022-10-03T07:57:31.828Z,11.44
2022-10-03T07:58:31.790Z,11.47
2022-10-03T07:59:31.774Z,11.51
2022-10-03T08:00:31.760Z,11.58
2022-10-03T08:01:31.749Z,11.64
2022-10-03T08:02:31.808Z,11.64
2022-10-03T08:03:31.859Z,11.64
2022-10-03T08:04:31.714Z,11.58
2022-10-03T08:05:31.702Z,11.62
2022-10-03T08:06:31.707Z,11.65
2022-10-03T08:07:31.691Z,11.54
2022-10-03T08:08:31.715Z,11.61
2022-10-03T08:09:31.656Z,11.69
2022-10-03T08:10:31.646Z,11.67
2022-10-03T08:11:31.633Z,11.69
2022-10-03T08:12:31.640Z,11.70
2022-10-03T08:13:31.633Z,11.73
2022-10-03T08:14:31.643Z,11.75
2022-10-03T08:15:31.686Z,11.67
2022-10-03T08:16:31.576Z,11.75
2022-10-03T08:17:31.580Z,11.73
2022-10-03T08:18:31.560Z,11.73
2022-10-03T08:19:31.558Z,11.80
2022-10-03T08:20:31.581Z,11.90
2022-10-03T08:21:31.523Z,11.96
2022-10-03T08:22:31.543Z,11.98
2022-10-03T08:23:31.514Z,11.95
2022-10-03T08:24:31.602Z,11.96
2022-10-03T08:25:31.497Z,11.94
2022-10-03T08:26:31.473Z,11.94
2022-10-03T08:27:31.452Z,11.96
2022-10-03T08:28:31.549Z,11.91
2022-10-03T08:29:31.447Z,11.85
2022-10-03T08:30:31.443Z,11.96
2022-10-03T08:31:31.449Z,12.04
2022-10-03T08:32:31.407Z,12.04
2022-10-03T08:33:31.385Z,12.05
2022-10-03T08:34:31.389Z,12.02
2022-10-03T08:35:31.373Z,12.12
2022-10-03T08:36:31.486Z,12.17
2022-10-03T08:37:31.340Z,12.14
2022-10-03T08:38:31.336Z,12.19
2022-10-03T08:39:31.316Z,12.10
2022-10-03T08:40:31.362Z,12.01
2022-10-03T08:41:31.313Z,12.02
2022-10-03T08:42:31.318Z,12.02
2022-10-03T08:43:31.312Z,12.05
2022-10-03T08:44:31.267Z,12.04
2022-10-03T08:45:31.270Z,12.05
2022-10-03T08:46:31.317Z,12.17
2022-10-03T08:47:31.251Z,12.12
2022-10-03T08:48:31.259Z,12.17
2022-10-03T08:49:31.201Z,12.20
2022-10-03T08:50:31.267Z,12.16
2022-10-03T08:51:31.204Z,12.12
2022-10-03T08:52:31.181Z,12.07
2022-10-03T08:53:31.232Z,12.13
2022-10-03T08:54:31.147Z,12.19
2022-10-03T08:55:31.176Z,12.19
2022-10-03T08:56:31.207Z,12.21
2022-10-03T08:57:31.142Z,12.23
2022-10-03T08:58:31.151Z,12.34
2022-10-03T08:59:31.128Z,12.29
2022-10-03T09:00:31.077Z,12.35
2022-10-03T09:01:31.135Z,12.41
2022-10-03T09:02:31.317Z,12.45
2022-10-03T09:03:36.577Z,12.49
2022-10-03T09:04:32.033Z,12.49
2022-10-03T09:05:31.019Z,12.41
2022-10-03T09:06:31.056Z,12.42
2022-10-03T09:07:30.997Z,12.34
2022-10-03T09:08:31.010Z,12.45
2022-10-03T09:09:35.658Z,12.47
2022-10-03T09:10:31.964Z,12.50
2022-10-03T09:11:30.950Z,12.38
2022-10-03T09:12:30.966Z,12.29
2022-10-03T09:13:30.928Z,12.41
2022-10-03T09:14:30.955Z,12.28
2022-10-03T09:15:30.934Z,12.32
2022-10-03T09:16:30.953Z,12.37
2022-10-03T09:17:30.882Z,12.38
2022-10-03T09:18:30.880Z,12.37
2022-10-03T09:19:30.895Z,12.47
2022-10-03T09:20:30.900Z,12.45
2022-10-03T09:21:33.774Z,12.41
2022-10-03T09:22:31.833Z,12.28
2022-10-03T09:23:30.814Z,12.32
2022-10-03T09:24:30.808Z,12.29
2022-10-03T09:25:30.833Z,12.27
2022-10-03T09:26:30.807Z,12.20
2022-10-03T09:27:30.808Z,12.20
2022-10-03T09:28:30.834Z,12.23
2022-10-03T09:29:30.747Z,12.19
2022-10-03T09:30:30.743Z,12.31
2022-10-03T09:31:30.838Z,12.31
2022-10-03T09:32:30.744Z,12.27
2022-10-03T09:33:30.763Z,12.32
2022-10-03T09:34:30.693Z,12.34
2022-10-03T09:35:30.683Z,12.38
2022-10-03T09:36:30.681Z,12.38
2022-10-03T09:37:30.681Z,12.39
2022-10-03T09:38:30.671Z,12.41
2022-10-03T09:39:30.682Z,12.46
2022-10-03T09:40:30.626Z,12.49
2022-10-03T09:41:30.626Z,12.39
2022-10-03T09:42:30.642Z,12.57
2022-10-03T09:43:30.597Z,12.57
2022-10-03T09:44:30.624Z,12.59
2022-10-03T09:45:30.574Z,12.65
2022-10-03T09:46:30.622Z,12.57
2022-10-03T09:47:30.555Z,12.62
2022-10-03T09:48:30.550Z,12.65
2022-10-03T09:49:30.532Z,12.67
2022-10-03T09:50:30.511Z,12.67
2022-10-03T09:51:30.503Z,12.64
2022-10-03T09:52:30.497Z,12.64
2022-10-03T09:53:30.516Z,12.62
2022-10-03T09:54:30.478Z,12.60
2022-10-03T09:55:30.478Z,12.67
2022-10-03T09:56:30.481Z,12.62
2022-10-03T09:57:30.438Z,12.62
2022-10-03T09:58:30.421Z,12.68
2022-10-03T09:59:30.415Z,12.74
2022-10-03T10:00:30.491Z,12.72
2022-10-03T10:01:30.384Z,12.79
2022-10-03T10:02:30.382Z,12.82
2022-10-03T10:03:30.500Z,12.78
2022-10-03T10:04:52.963Z,12.89
2022-10-03T10:05:31.337Z,12.89
2022-10-03T10:06:30.360Z,12.89
2022-10-03T10:07:30.358Z,12.90
2022-10-03T10:08:30.306Z,12.89
2022-10-03T10:09:30.326Z,13.00
2022-10-03T10:10:30.323Z,12.92
2022-10-03T10:11:34.909Z,13.01
2022-10-03T10:12:31.259Z,13.00
2022-10-03T10:13:44.245Z,13.04
2022-10-03T10:14:31.273Z,13.08
2022-10-03T10:15:30.250Z,13.07
2022-10-03T10:16:30.353Z,13.14
2022-10-03T10:17:30.223Z,13.14
2022-10-03T10:18:30.231Z,13.25
2022-10-03T10:19:30.178Z,13.22
2022-10-03T10:20:30.172Z,13.17
2022-10-03T10:21:30.191Z,13.20
2022-10-03T10:22:30.171Z,13.26
2022-10-03T10:23:30.169Z,13.38
2022-10-03T10:24:30.122Z,13.38
2022-10-03T10:25:30.112Z,13.42
2022-10-03T10:26:30.117Z,13.38
2022-10-03T10:27:30.104Z,13.46
2022-10-03T10:28:30.288Z,13.45
2022-10-03T10:29:30.098Z,13.39
2022-10-03T10:30:30.071Z,13.44
2022-10-03T10:31:30.178Z,13.55
2022-10-03T10:32:30.152Z,13.51
2022-10-03T10:33:30.048Z,13.51
2022-10-03T10:34:30.055Z,13.55
2022-10-03T10:35:29.995Z,13.54
2022-10-03T10:36:29.985Z,13.46
2022-10-03T10:37:29.999Z,13.45
2022-10-03T10:38:29.977Z,13.44
2022-10-03T10:39:29.985Z,13.49
2022-10-03T10:40:29.983Z,13.48
2022-10-03T10:41:29.925Z,13.49
2022-10-03T10:42:29.938Z,13.62
2022-10-03T10:43:29.913Z,13.60
2022-10-03T10:44:29.910Z,13.62
2022-10-03T10:45:29.907Z,13.54
2022-10-03T10:46:29.971Z,13.48
2022-10-03T10:47:29.881Z,13.62
2022-10-03T10:48:29.866Z,13.63
2022-10-03T10:49:29.849Z,13.52
2022-10-03T10:50:29.857Z,13.57
2022-10-03T10:51:29.910Z,13.62
2022-10-03T10:52:29.840Z,13.52
2022-10-03T10:53:29.800Z,13.60
2022-10-03T10:54:29.794Z,13.48
2022-10-03T10:55:29.819Z,13.52
2022-10-03T10:56:29.782Z,13.54
2022-10-03T10:57:29.743Z,13.52
2022-10-03T10:58:29.740Z,13.44
2022-10-03T10:59:29.758Z,13.49
2022-10-03T11:00:29.816Z,13.62
2022-10-03T11:01:29.715Z,13.63
2022-10-03T11:02:29.724Z,13.71
2022-10-03T11:03:29.676Z,13.67
2022-10-03T11:04:29.726Z,13.55
2022-10-03T11:05:29.716Z,13.63
2022-10-03T11:06:29.658Z,13.62
2022-10-03T11:07:29.634Z,13.62
2022-10-03T11:08:29.618Z,13.66
2022-10-03T11:09:29.605Z,13.66
2022-10-03T11:10:29.619Z,13.69
2022-10-03T11:11:29.597Z,13.70
2022-10-03T11:12:29.584Z,13.77
2022-10-03T11:13:34.813Z,13.81
2022-10-03T11:14:30.549Z,13.88
2022-10-03T11:15:29.561Z,13.92
2022-10-03T11:16:29.647Z,13.89
2022-10-03T11:17:29.558Z,13.88
2022-10-03T11:18:29.532Z,13.88
2022-10-03T11:19:29.526Z,13.96
2022-10-03T11:20:29.496Z,13.89
2022-10-03T11:21:29.469Z,13.85
2022-10-03T11:22:29.471Z,13.77
2022-10-03T11:23:29.467Z,13.85
2022-10-03T11:24:29.471Z,13.70
2022-10-03T11:25:29.422Z,13.67
2022-10-03T11:26:29.411Z,13.77
2022-10-03T11:27:29.443Z,13.63
2022-10-03T11:28:29.476Z,13.69
2022-10-03T11:29:29.412Z,13.63
2022-10-03T11:30:29.407Z,13.63
2022-10-03T11:31:29.393Z,13.63
2022-10-03T11:32:29.360Z,13.63
2022-10-03T11:33:29.357Z,13.64
2022-10-03T11:34:29.340Z,13.63
2022-10-03T11:35:29.345Z,13.60
2022-10-03T11:36:29.318Z,13.63
2022-10-03T11:37:29.290Z,13.62
2022-10-03T11:38:29.275Z,13.57
2022-10-03T11:39:29.305Z,13.52
2022-10-03T11:40:29.277Z,13.67
2022-10-03T11:41:29.273Z,13.63
2022-10-03T11:42:29.233Z,13.75
2022-10-03T11:43:29.220Z,13.75
2022-10-03T11:44:29.240Z,13.87
2022-10-03T11:45:29.273Z,13.89
2022-10-03T11:46:29.205Z,13.95
2022-10-03T11:47:29.175Z,13.99
2022-10-03T11:48:29.165Z,13.99
2022-10-03T11:49:29.157Z,13.91
2022-10-03T11:50:29.174Z,13.92
2022-10-03T11:51:29.154Z,13.87
2022-10-03T11:52:29.133Z,13.87
2022-10-03T11:53:29.110Z,13.81
2022-10-03T11:54:31.840Z,13.71
2022-10-03T11:55:29.098Z,13.75
2022-10-03T11:56:29.120Z,13.87
2022-10-03T11:57:29.077Z,13.82
2022-10-03T11:58:29.088Z,13.69
2022-10-03T11:59:29.054Z,13.70
2022-10-03T12:00:29.024Z,13.70
2022-10-03T12:01:29.016Z,13.70
2022-10-03T12:02:29.119Z,13.69
2022-10-03T12:03:29.121Z,13.77
2022-10-03T12:04:29.029Z,13.78
2022-10-03T12:05:28.970Z,13.71
2022-10-03T12:06:28.985Z,13.71
2022-10-03T12:07:28.947Z,13.73
2022-10-03T12:08:29.039Z,13.75
2022-10-03T12:09:28.923Z,13.70
2022-10-03T12:10:28.908Z,13.69
2022-10-03T12:11:28.898Z,13.66
2022-10-03T12:12:28.926Z,13.63
2022-10-03T12:13:28.878Z,13.63
2022-10-03T12:14:28.905Z,13.63
2022-10-03T12:15:28.857Z,13.62
2022-10-03T12:16:28.884Z,13.62
2022-10-03T12:17:28.856Z,13.60
2022-10-03T12:18:28.848Z,13.59
2022-10-03T12:19:28.835Z,13.57
2022-10-03T12:20:28.823Z,13.59
2022-10-03T12:21:28.783Z,13.48
2022-10-03T12:22:28.772Z,13.45
2022-10-03T12:23:28.764Z,13.45
2022-10-03T12:24:28.897Z,13.46
2022-10-03T12:25:28.770Z,13.52
2022-10-03T12:26:28.734Z,13.55
2022-10-03T12:27:28.720Z,13.55
2022-10-03T12:28:28.803Z,13.62
2022-10-03T12:29:28.713Z,13.75
2022-10-03T12:30:28.691Z,13.87
2022-10-03T12:31:28.754Z,13.89
2022-10-03T12:32:28.697Z,14.10
2022-10-03T12:33:28.647Z,14.12
2022-10-03T12:34:28.644Z,14.17
2022-10-03T12:35:28.635Z,14.21
2022-10-03T12:36:28.631Z,14.15
2022-10-03T12:37:28.645Z,14.15
2022-10-03T12:38:28.602Z,14.17
2022-10-03T12:39:28.579Z,14.15
2022-10-03T12:40:28.623Z,14.09
2022-10-03T12:41:28.587Z,14.09
2022-10-03T12:42:28.578Z,14.17
2022-10-03T12:43:28.555Z,14.14
2022-10-03T12:44:28.523Z,14.18
2022-10-03T12:45:28.598Z,14.22
2022-10-03T12:46:28.520Z,14.39
2022-10-03T12:47:51.132Z,14.28
2022-10-03T12:48:29.473Z,14.43
2022-10-03T12:49:28.497Z,14.39
2022-10-03T12:50:28.451Z,14.40
2022-10-03T12:51:28.446Z,14.43
2022-10-03T12:52:28.455Z,14.43
2022-10-03T12:53:28.456Z,14.39
2022-10-03T12:54:28.406Z,14.43
2022-10-03T12:55:28.445Z,14.45
2022-10-03T12:56:28.513Z,14.45
2022-10-03T12:57:28.387Z,14.50
2022-10-03T12:58:28.399Z,14.46
2022-10-03T12:59:28.380Z,14.45
2022-10-03T13:00:28.369Z,14.43
2022-10-03T13:01:28.427Z,14.33
2022-10-03T13:02:28.404Z,14.32
2022-10-03T13:03:28.316Z,14.33